Nissos Mykonos — SYJZ — position and weather

sailwx.info

Track history (hours):
 
Tides and Currents Weather Stations Pressure Air Temp Water Temp Dewpoint Dewpoint Depression Visibility Wind Speed Wind Dir Waves Ship Positions

Nissos Mykonos

Last reported at 2016-Dec-04 03:34 UTC. Time now 2016-Dec-04 03:56 UTC.
Position N 37°57' E 023°38'.

Length 141 m; draft 5.2 m.

Type: Passenger vessel. MMSI: 240389000.

Date/timePositionNaut miles runAvg speedWind from/ knotsBaromVisibWave heightAir tempDewpointWater temp
2016-Dec-04 03:34N 37°57' E 023°38'0 0.0
2016-Dec-04 02:34N 37°57' E 023°38'0 0.0
2016-Dec-04 01:34N 37°57' E 023°38'0 0.0
2016-Dec-04 00:34N 37°57' E 023°38'0 0.0
2016-Dec-03 23:33N 37°57' E 023°38'0 0.0
2016-Dec-03 22:34N 37°57' E 023°38'0 0.0
2016-Dec-03 21:33N 37°57' E 023°38'0 0.0
2016-Dec-03 20:34N 37°57' E 023°38'0 0.0
2016-Dec-03 19:33N 37°57' E 023°38'0 0.0
2016-Dec-03 18:33N 37°57' E 023°38'0 0.0
2016-Dec-03 17:33N 37°57' E 023°38'0 0.0
2016-Dec-03 16:34N 37°57' E 023°38'0 0.0
2016-Dec-03 15:33N 37°57' E 023°38'0 0.0
2016-Dec-03 14:34N 37°57' E 023°38'0 0.0
2016-Dec-03 13:33N 37°57' E 023°38'0 0.0
2016-Dec-03 12:34N 37°57' E 023°38'0 0.0
2016-Dec-03 11:34N 37°57' E 023°38'0 0.0
2016-Dec-03 03:10N 37°57' E 023°38'0 0.0
2016-Dec-02 20:30N 37°57' E 023°38'0 0.0
2016-Dec-02 19:29N 37°57' E 023°38'0 0.0
2016-Dec-02 18:27N 37°57' E 023°38'0 0.0
2016-Dec-02 14:30N 37°57' E 023°38'0 0.0
2016-Dec-02 08:09N 37°57' E 023°38'1016.6
2016-Dec-02 07:34N 37°47' E 023°42'7518.9
2016-Dec-02 03:34N 37°27' E 025°14'156 8.5
2016-Dec-01 09:16N 40°03' E 024°54'1521.7
2016-Dec-01 08:33N 40°16' E 024°44'2221.9
2016-Dec-01 07:33N 40°36' E 024°31'2120.7
2016-Dec-01 06:33N 40°56' E 024°25'0 0.1
2016-Dec-01 05:33N 40°56' E 024°25'0 0.0
2016-Dec-01 04:33N 40°56' E 024°25'0 0.0
2016-Dec-01 03:33N 40°56' E 024°25'0 0.0
2016-Dec-01 02:33N 40°56' E 024°25'0 0.0
2016-Dec-01 01:33N 40°56' E 024°25'0 0.0
2016-Dec-01 00:33N 40°56' E 024°25'1414.4
2016-Nov-30 23:34N 40°42' E 024°28'2120.8
2016-Nov-30 22:33N 40°24' E 024°43'185 7.0
2016-Nov-29 20:07N 37°22' E 025°29'1017.6
2016-Nov-29 19:33N 37°26' E 025°17'1110.7
2016-Nov-29 18:32N 37°27' E 025°04'1212.1
2016-Nov-29 17:33N 37°32' E 024°50'4020.3
2016-Nov-29 15:33N 37°35' E 023°59'2020.4
2016-Nov-29 14:33N 37°48' E 023°39'9 9.1
2016-Nov-29 13:33N 37°57' E 023°38'0 0.0
2016-Nov-29 12:33N 37°57' E 023°38'0 0.0
2016-Nov-29 11:33N 37°57' E 023°38'3 3.1
2016-Nov-29 10:33N 37°54' E 023°38'6120.2
2016-Nov-29 07:34N 37°31' E 024°49'1212.4
2016-Nov-29 06:34N 37°27' E 025°04'1716.7
2016-Nov-29 05:31N 37°31' E 025°25'6 0.6
2016-Nov-28 19:29N 37°29' E 025°18'1112.0
2016-Nov-28 18:34N 37°27' E 025°04'1211.6
2016-Nov-28 17:32N 37°32' E 024°51'5120.8
2016-Nov-28 15:06N 37°39' E 023°48'1120.6
2016-Nov-28 14:33N 37°48' E 023°39'9 8.9
2016-Nov-28 13:33N 37°57' E 023°38'0 0.0
2016-Nov-28 12:33N 37°57' E 023°38'0 0.0
2016-Nov-28 11:33N 37°57' E 023°38'0 0.0
2016-Nov-28 10:33N 37°57' E 023°38'0 0.0
2016-Nov-28 09:29N 37°57' E 023°38'0 0.0
2016-Nov-28 07:25N 37°57' E 023°38'0 0.0
2016-Nov-28 06:33N 37°57' E 023°38'0 0.0
2016-Nov-28 05:33N 37°57' E 023°38'0 0.0
2016-Nov-28 04:33N 37°57' E 023°38'0 0.0
2016-Nov-28 03:33N 37°57' E 023°38'0 0.0
2016-Nov-28 02:33N 37°57' E 023°38'0 0.0
2016-Nov-28 01:33N 37°57' E 023°38'0 0.0
2016-Nov-28 00:33N 37°57' E 023°38'0 0.0
2016-Nov-27 23:33N 37°57' E 023°38'0 0.0
2016-Nov-27 22:33N 37°57' E 023°38'0 0.0
2016-Nov-27 21:33N 37°57' E 023°38'9 8.9
2016-Nov-27 20:34N 37°48' E 023°41'2723.1
2016-Nov-27 19:23N 37°33' E 024°10'2723.7
2016-Nov-27 18:15N 37°31' E 024°44'1213.9
2016-Nov-27 17:23N 37°26' E 024°58'1720.8
2016-Nov-27 16:33N 37°28' E 025°19'156 8.6
2016-Nov-26 22:18N 40°03' E 024°54'1621.3
2016-Nov-26 21:33N 40°17' E 024°44'2222.1
2016-Nov-26 20:33N 40°36' E 024°30'2020.2
2016-Nov-26 19:34N 40°56' E 024°25'5 1.6
2016-Nov-26 16:34N 40°51' E 024°25'2221.5
2016-Nov-26 15:34N 40°31' E 024°34'2722.1
2016-Nov-26 14:20N 40°07' E 024°52'159 8.5
2016-Nov-25 19:31N 37°29' E 025°18'1112.0
2016-Nov-25 18:34N 37°27' E 025°04'1211.5
2016-Nov-25 17:29N 37°32' E 024°50'4221.1
2016-Nov-25 15:30N 37°36' E 023°57'1920.3
2016-Nov-25 14:34N 37°48' E 023°38'9 8.6
2016-Nov-25 13:33N 37°57' E 023°38'0 0.0
2016-Nov-25 12:33N 37°57' E 023°38'0 0.0
2016-Nov-25 11:33N 37°57' E 023°38'0 0.0
2016-Nov-25 10:33N 37°57' E 023°38'0 0.0
2016-Nov-25 09:33N 37°57' E 023°38'0 0.0
2016-Nov-25 08:33N 37°57' E 023°38'0 0.0
2016-Nov-25 07:33N 37°57' E 023°38'0 0.0
2016-Nov-25 06:33N 37°57' E 023°38'0 0.0
2016-Nov-25 05:33N 37°57' E 023°38'0 0.0
2016-Nov-25 04:33N 37°57' E 023°38'0 0.0
2016-Nov-25 03:33N 37°57' E 023°38'0 0.0
2016-Nov-25 02:33N 37°57' E 023°38'0 0.0
2016-Nov-25 01:33N 37°57' E 023°38'0 0.0
2016-Nov-25 00:33N 37°57' E 023°38'0 0.0
2016-Nov-24 23:33N 37°57' E 023°38'0 0.0
2016-Nov-24 22:33N 37°57' E 023°38'0 0.0
2016-Nov-24 21:33N 37°57' E 023°38'1616.2
2016-Nov-24 20:33N 37°42' E 023°45'4821.5
2016-Nov-24 18:18N 37°31' E 024°45'1513.3
2016-Nov-24 17:12N 37°27' E 025°03'1320.4
2016-Nov-24 16:33N 37°28' E 025°19'  
Track history (hours):
 
Tides and Currents Weather Stations Pressure Air Temp Water Temp Dewpoint Dewpoint Depression Visibility Wind Speed Wind Dir Waves Ship Positions

Nissos Mykonos

Last reported at 2016-Dec-04 03:34 UTC. Time now 2016-Dec-04 03:56 UTC.
Position N 37°57' E 023°38'.

Length 141 m; draft 5.2 m.

Type: Passenger vessel. MMSI: 240389000.

Date/timePositionNaut miles runAvg speedWind from/ knotsBaromVisibWave heightAir tempDewpointWater temp
2016-Dec-04 03:34N 37°57' E 023°38'0 0.0
2016-Dec-04 02:34N 37°57' E 023°38'0 0.0
2016-Dec-04 01:34N 37°57' E 023°38'0 0.0
2016-Dec-04 00:34N 37°57' E 023°38'0 0.0
2016-Dec-03 23:33N 37°57' E 023°38'0 0.0
2016-Dec-03 22:34N 37°57' E 023°38'0 0.0
2016-Dec-03 21:33N 37°57' E 023°38'0 0.0
2016-Dec-03 20:34N 37°57' E 023°38'0 0.0
2016-Dec-03 19:33N 37°57' E 023°38'0 0.0
2016-Dec-03 18:33N 37°57' E 023°38'0 0.0
2016-Dec-03 17:33N 37°57' E 023°38'0 0.0
2016-Dec-03 16:34N 37°57' E 023°38'0 0.0
2016-Dec-03 15:33N 37°57' E 023°38'0 0.0
2016-Dec-03 14:34N 37°57' E 023°38'0 0.0
2016-Dec-03 13:33N 37°57' E 023°38'0 0.0
2016-Dec-03 12:34N 37°57' E 023°38'0 0.0
2016-Dec-03 11:34N 37°57' E 023°38'0 0.0
2016-Dec-03 03:10N 37°57' E 023°38'0 0.0
2016-Dec-02 20:30N 37°57' E 023°38'0 0.0
2016-Dec-02 19:29N 37°57' E 023°38'0 0.0
2016-Dec-02 18:27N 37°57' E 023°38'0 0.0
2016-Dec-02 14:30N 37°57' E 023°38'0 0.0
2016-Dec-02 08:09N 37°57' E 023°38'1016.6
2016-Dec-02 07:34N 37°47' E 023°42'7518.9
2016-Dec-02 03:34N 37°27' E 025°14'156 8.5
2016-Dec-01 09:16N 40°03' E 024°54'1521.7
2016-Dec-01 08:33N 40°16' E 024°44'2221.9
2016-Dec-01 07:33N 40°36' E 024°31'2120.7
2016-Dec-01 06:33N 40°56' E 024°25'0 0.1
2016-Dec-01 05:33N 40°56' E 024°25'0 0.0
2016-Dec-01 04:33N 40°56' E 024°25'0 0.0
2016-Dec-01 03:33N 40°56' E 024°25'0 0.0
2016-Dec-01 02:33N 40°56' E 024°25'0 0.0
2016-Dec-01 01:33N 40°56' E 024°25'0 0.0
2016-Dec-01 00:33N 40°56' E 024°25'1414.4
2016-Nov-30 23:34N 40°42' E 024°28'2120.8
2016-Nov-30 22:33N 40°24' E 024°43'185 7.0
2016-Nov-29 20:07N 37°22' E 025°29'1017.6
2016-Nov-29 19:33N 37°26' E 025°17'1110.7
2016-Nov-29 18:32N 37°27' E 025°04'1212.1
2016-Nov-29 17:33N 37°32' E 024°50'4020.3
2016-Nov-29 15:33N 37°35' E 023°59'2020.4
2016-Nov-29 14:33N 37°48' E 023°39'9 9.1
2016-Nov-29 13:33N 37°57' E 023°38'0 0.0
2016-Nov-29 12:33N 37°57' E 023°38'0 0.0
2016-Nov-29 11:33N 37°57' E 023°38'3 3.1
2016-Nov-29 10:33N 37°54' E 023°38'6120.2
2016-Nov-29 07:34N 37°31' E 024°49'1212.4
2016-Nov-29 06:34N 37°27' E 025°04'1716.7
2016-Nov-29 05:31N 37°31' E 025°25'6 0.6
2016-Nov-28 19:29N 37°29' E 025°18'1112.0
2016-Nov-28 18:34N 37°27' E 025°04'1211.6
2016-Nov-28 17:32N 37°32' E 024°51'5120.8
2016-Nov-28 15:06N 37°39' E 023°48'1120.6
2016-Nov-28 14:33N 37°48' E 023°39'9 8.9
2016-Nov-28 13:33N 37°57' E 023°38'0 0.0
2016-Nov-28 12:33N 37°57' E 023°38'0 0.0
2016-Nov-28 11:33N 37°57' E 023°38'0 0.0
2016-Nov-28 10:33N 37°57' E 023°38'0 0.0
2016-Nov-28 09:29N 37°57' E 023°38'0 0.0
2016-Nov-28 07:25N 37°57' E 023°38'0 0.0
2016-Nov-28 06:33N 37°57' E 023°38'0 0.0
2016-Nov-28 05:33N 37°57' E 023°38'0 0.0
2016-Nov-28 04:33N 37°57' E 023°38'0 0.0
2016-Nov-28 03:33N 37°57' E 023°38'0 0.0
2016-Nov-28 02:33N 37°57' E 023°38'0 0.0
2016-Nov-28 01:33N 37°57' E 023°38'0 0.0
2016-Nov-28 00:33N 37°57' E 023°38'0 0.0
2016-Nov-27 23:33N 37°57' E 023°38'0 0.0
2016-Nov-27 22:33N 37°57' E 023°38'0 0.0
2016-Nov-27 21:33N 37°57' E 023°38'9 8.9
2016-Nov-27 20:34N 37°48' E 023°41'2723.1
2016-Nov-27 19:23N 37°33' E 024°10'2723.7
2016-Nov-27 18:15N 37°31' E 024°44'1213.9
2016-Nov-27 17:23N 37°26' E 024°58'1720.8
2016-Nov-27 16:33N 37°28' E 025°19'156 8.6
2016-Nov-26 22:18N 40°03' E 024°54'1621.3
2016-Nov-26 21:33N 40°17' E 024°44'2222.1
2016-Nov-26 20:33N 40°36' E 024°30'2020.2
2016-Nov-26 19:34N 40°56' E 024°25'5 1.6
2016-Nov-26 16:34N 40°51' E 024°25'2221.5
2016-Nov-26 15:34N 40°31' E 024°34'2722.1
2016-Nov-26 14:20N 40°07' E 024°52'159 8.5
2016-Nov-25 19:31N 37°29' E 025°18'1112.0
2016-Nov-25 18:34N 37°27' E 025°04'1211.5
2016-Nov-25 17:29N 37°32' E 024°50'4221.1
2016-Nov-25 15:30N 37°36' E 023°57'1920.3
2016-Nov-25 14:34N 37°48' E 023°38'9 8.6
2016-Nov-25 13:33N 37°57' E 023°38'0 0.0
2016-Nov-25 12:33N 37°57' E 023°38'0 0.0
2016-Nov-25 11:33N 37°57' E 023°38'0 0.0
2016-Nov-25 10:33N 37°57' E 023°38'0 0.0
2016-Nov-25 09:33N 37°57' E 023°38'0 0.0
2016-Nov-25 08:33N 37°57' E 023°38'0 0.0
2016-Nov-25 07:33N 37°57' E 023°38'0 0.0
2016-Nov-25 06:33N 37°57' E 023°38'0 0.0
2016-Nov-25 05:33N 37°57' E 023°38'0 0.0
2016-Nov-25 04:33N 37°57' E 023°38'0 0.0
2016-Nov-25 03:33N 37°57' E 023°38'0 0.0
2016-Nov-25 02:33N 37°57' E 023°38'0 0.0
2016-Nov-25 01:33N 37°57' E 023°38'0 0.0
2016-Nov-25 00:33N 37°57' E 023°38'0 0.0
2016-Nov-24 23:33N 37°57' E 023°38'0 0.0
2016-Nov-24 22:33N 37°57' E 023°38'0 0.0
2016-Nov-24 21:33N 37°57' E 023°38'1616.2
2016-Nov-24 20:33N 37°42' E 023°45'4821.5
2016-Nov-24 18:18N 37°31' E 024°45'1513.3
2016-Nov-24 17:12N 37°27' E 025°03'1320.4
2016-Nov-24 16:33N 37°28' E 025°19'  

Dump ship's entire track history